sensor_id;sensor_type;location;lat;lon;timestamp;temperature;humidity
73137;DHT22;62977;45.636;11.750;2022-11-15T00:00:54;10.80;85.60
73137;DHT22;62977;45.636;11.750;2022-11-15T00:03:25;10.70;85.40
73137;DHT22;62977;45.636;11.750;2022-11-15T00:05:51;10.50;85.60
73137;DHT22;62977;45.636;11.750;2022-11-15T00:08:17;10.50;85.90
73137;DHT22;62977;45.636;11.750;2022-11-15T00:10:43;10.60;85.70
73137;DHT22;62977;45.636;11.750;2022-11-15T00:13:18;10.40;86.00
73137;DHT22;62977;45.636;11.750;2022-11-15T00:15:44;10.50;86.00
73137;DHT22;62977;45.636;11.750;2022-11-15T00:18:14;10.50;85.60
73137;DHT22;62977;45.636;11.750;2022-11-15T00:20:40;10.40;85.30
73137;DHT22;62977;45.636;11.750;2022-11-15T00:23:07;10.30;85.60
73137;DHT22;62977;45.636;11.750;2022-11-15T00:25:32;10.30;85.40
73137;DHT22;62977;45.636;11.750;2022-11-15T00:27:59;10.20;85.60
73137;DHT22;62977;45.636;11.750;2022-11-15T00:30:26;10.10;86.10
73137;DHT22;62977;45.636;11.750;2022-11-15T00:32:52;10.20;86.30
73137;DHT22;62977;45.636;11.750;2022-11-15T00:35:18;10.10;86.80
73137;DHT22;62977;45.636;11.750;2022-11-15T00:37:44;10.00;86.50
73137;DHT22;62977;45.636;11.750;2022-11-15T00:40:10;10.10;86.40
73137;DHT22;62977;45.636;11.750;2022-11-15T00:42:38;9.90;86.30
73137;DHT22;62977;45.636;11.750;2022-11-15T00:45:04;10.00;86.40
73137;DHT22;62977;45.636;11.750;2022-11-15T00:47:29;9.90;86.30
73137;DHT22;62977;45.636;11.750;2022-11-15T00:49:55;9.80;86.20
73137;DHT22;62977;45.636;11.750;2022-11-15T00:52:21;9.80;86.60
73137;DHT22;62977;45.636;11.750;2022-11-15T00:54:47;9.80;86.50
73137;DHT22;62977;45.636;11.750;2022-11-15T00:57:12;9.90;86.90
73137;DHT22;62977;45.636;11.750;2022-11-15T00:59:38;9.90;86.80
73137;DHT22;62977;45.636;11.750;2022-11-15T01:02:03;9.90;87.00
73137;DHT22;62977;45.636;11.750;2022-11-15T01:04:29;10.00;86.10
73137;DHT22;62977;45.636;11.750;2022-11-15T01:06:55;10.00;86.40
73137;DHT22;62977;45.636;11.750;2022-11-15T01:09:20;10.10;86.20
73137;DHT22;62977;45.636;11.750;2022-11-15T01:11:46;10.20;85.90
73137;DHT22;62977;45.636;11.750;2022-11-15T01:14:12;10.00;85.40
73137;DHT22;62977;45.636;11.750;2022-11-15T01:16:37;9.90;85.40
73137;DHT22;62977;45.636;11.750;2022-11-15T01:19:03;10.00;85.50
73137;DHT22;62977;45.636;11.750;2022-11-15T01:21:29;9.70;85.60
73137;DHT22;62977;45.636;11.750;2022-11-15T01:23:55;9.40;86.90
73137;DHT22;62977;45.636;11.750;2022-11-15T01:26:23;9.50;87.80
73137;DHT22;62977;45.636;11.750;2022-11-15T01:28:49;9.50;87.90
73137;DHT22;62977;45.636;11.750;2022-11-15T01:31:17;9.60;87.80
73137;DHT22;62977;45.636;11.750;2022-11-15T01:33:44;9.60;87.40
73137;DHT22;62977;45.636;11.750;2022-11-15T01:36:16;9.60;87.20
73137;DHT22;62977;45.636;11.750;2022-11-15T01:38:42;9.60;87.10
73137;DHT22;62977;45.636;11.750;2022-11-15T01:41:19;9.70;86.90
73137;DHT22;62977;45.636;11.750;2022-11-15T01:43:48;9.70;87.20
73137;DHT22;62977;45.636;11.750;2022-11-15T01:46:33;9.70;87.30
73137;DHT22;62977;45.636;11.750;2022-11-15T01:49:03;9.80;87.40
73137;DHT22;62977;45.636;11.750;2022-11-15T01:51:32;9.70;86.90
73137;DHT22;62977;45.636;11.750;2022-11-15T01:54:05;9.50;87.00
73137;DHT22;62977;45.636;11.750;2022-11-15T01:56:36;9.30;87.60
73137;DHT22;62977;45.636;11.750;2022-11-15T01:59:04;9.30;88.00
73137;DHT22;62977;45.636;11.750;2022-11-15T02:01:31;9.50;88.10
73137;DHT22;62977;45.636;11.750;2022-11-15T02:04:18;9.50;87.90
73137;DHT22;62977;45.636;11.750;2022-11-15T02:06:47;9.60;87.50
73137;DHT22;62977;45.636;11.750;2022-11-15T02:09:14;9.70;87.20
73137;DHT22;62977;45.636;11.750;2022-11-15T02:11:40;9.60;87.20
73137;DHT22;62977;45.636;11.750;2022-11-15T02:14:06;9.60;87.10
73137;DHT22;62977;45.636;11.750;2022-11-15T02:33:56;9.40;87.70
73137;DHT22;62977;45.636;11.750;2022-11-15T02:36:52;9.40;87.40
73137;DHT22;62977;45.636;11.750;2022-11-15T02:39:57;9.40;87.20
73137;DHT22;62977;45.636;11.750;2022-11-15T02:42:36;9.50;86.80
73137;DHT22;62977;45.636;11.750;2022-11-15T02:45:30;9.40;86.90
73137;DHT22;62977;45.636;11.750;2022-11-15T02:47:58;9.40;87.00
73137;DHT22;62977;45.636;11.750;2022-11-15T02:50:27;9.40;86.70
73137;DHT22;62977;45.636;11.750;2022-11-15T02:52:53;9.30;86.30
73137;DHT22;62977;45.636;11.750;2022-11-15T02:55:34;9.20;86.10
73137;DHT22;62977;45.636;11.750;2022-11-15T03:00:45;9.00;86.90
73137;DHT22;62977;45.636;11.750;2022-11-15T03:06:12;9.00;87.10
73137;DHT22;62977;45.636;11.750;2022-11-15T03:08:44;8.50;87.80
73137;DHT22;62977;45.636;11.750;2022-11-15T03:11:18;8.70;87.60
73137;DHT22;62977;45.636;11.750;2022-11-15T03:16:32;8.70;87.30
73137;DHT22;62977;45.636;11.750;2022-11-15T03:19:26;8.60;87.60
73137;DHT22;62977;45.636;11.750;2022-11-15T03:21:56;8.60;87.50
73137;DHT22;62977;45.636;11.750;2022-11-15T03:24:23;8.70;87.30
73137;DHT22;62977;45.636;11.750;2022-11-15T03:26:51;8.70;87.20
73137;DHT22;62977;45.636;11.750;2022-11-15T03:29:30;8.50;87.70
73137;DHT22;62977;45.636;11.750;2022-11-15T03:32:01;8.40;88.00
73137;DHT22;62977;45.636;11.750;2022-11-15T03:35:20;8.40;87.70
73137;DHT22;62977;45.636;11.750;2022-11-15T03:37:24;8.20;87.90
73137;DHT22;62977;45.636;11.750;2022-11-15T03:39:51;8.20;88.00
73137;DHT22;62977;45.636;11.750;2022-11-15T03:42:24;8.20;88.00
73137;DHT22;62977;45.636;11.750;2022-11-15T03:47:36;8.20;88.20
73137;DHT22;62977;45.636;11.750;2022-11-15T03:50:11;8.20;87.80
73137;DHT22;62977;45.636;11.750;2022-11-15T03:52:39;8.30;88.10
73137;DHT22;62977;45.636;11.750;2022-11-15T03:55:10;8.40;87.50
73137;DHT22;62977;45.636;11.750;2022-11-15T03:57:36;8.40;87.20
73137;DHT22;62977;45.636;11.750;2022-11-15T04:00:03;8.40;87.00
73137;DHT22;62977;45.636;11.750;2022-11-15T04:02:29;8.30;86.80
73137;DHT22;62977;45.636;11.750;2022-11-15T04:04:55;8.20;86.70
73137;DHT22;62977;45.636;11.750;2022-11-15T04:07:20;8.30;86.40
73137;DHT22;62977;45.636;11.750;2022-11-15T04:09:46;8.20;86.40
73137;DHT22;62977;45.636;11.750;2022-11-15T04:12:28;8.20;86.60
73137;DHT22;62977;45.636;11.750;2022-11-15T04:15:11;8.20;86.60
73137;DHT22;62977;45.636;11.750;2022-11-15T04:17:43;8.10;87.00
73137;DHT22;62977;45.636;11.750;2022-11-15T04:22:55;8.00;87.20
73137;DHT22;62977;45.636;11.750;2022-11-15T04:25:40;7.90;86.90
73137;DHT22;62977;45.636;11.750;2022-11-15T04:28:06;8.00;87.00
73137;DHT22;62977;45.636;11.750;2022-11-15T04:30:31;7.90;87.00
73137;DHT22;62977;45.636;11.750;2022-11-15T04:32:57;7.90;87.10
73137;DHT22;62977;45.636;11.750;2022-11-15T04:35:23;7.80;87.30
73137;DHT22;62977;45.636;11.750;2022-11-15T04:37:48;7.70;87.80
73137;DHT22;62977;45.636;11.750;2022-11-15T04:40:14;7.70;87.90
73137;DHT22;62977;45.636;11.750;2022-11-15T04:42:43;7.70;87.90
73137;DHT22;62977;45.636;11.750;2022-11-15T04:45:10;7.80;87.80
73137;DHT22;62977;45.636;11.750;2022-11-15T04:47:35;7.60;87.60
73137;DHT22;62977;45.636;11.750;2022-11-15T04:50:01;7.70;87.80
73137;DHT22;62977;45.636;11.750;2022-11-15T04:52:27;7.80;87.50
73137;DHT22;62977;45.636;11.750;2022-11-15T04:54:53;7.80;87.60
73137;DHT22;62977;45.636;11.750;2022-11-15T04:57:18;7.80;87.50
73137;DHT22;62977;45.636;11.750;2022-11-15T04:59:44;7.90;87.60
73137;DHT22;62977;45.636;11.750;2022-11-15T05:02:10;7.80;87.70
73137;DHT22;62977;45.636;11.750;2022-11-15T05:04:35;7.70;87.70
73137;DHT22;62977;45.636;11.750;2022-11-15T05:07:01;7.70;87.90
73137;DHT22;62977;45.636;11.750;2022-11-15T05:09:27;7.70;88.00
73137;DHT22;62977;45.636;11.750;2022-11-15T05:11:53;7.70;87.60
73137;DHT22;62977;45.636;11.750;2022-11-15T05:14:18;7.70;87.50
73137;DHT22;62977;45.636;11.750;2022-11-15T05:16:44;7.70;87.60
73137;DHT22;62977;45.636;11.750;2022-11-15T05:19:10;7.70;87.50
73137;DHT22;62977;45.636;11.750;2022-11-15T05:21:36;7.70;87.40
73137;DHT22;62977;45.636;11.750;2022-11-15T05:24:02;7.90;87.50
73137;DHT22;62977;45.636;11.750;2022-11-15T05:26:28;7.80;87.40
73137;DHT22;62977;45.636;11.750;2022-11-15T05:28:55;7.70;87.20
73137;DHT22;62977;45.636;11.750;2022-11-15T05:31:21;7.60;87.10
73137;DHT22;62977;45.636;11.750;2022-11-15T05:33:49;7.60;87.00
73137;DHT22;62977;45.636;11.750;2022-11-15T05:36:29;7.70;87.30
73137;DHT22;62977;45.636;11.750;2022-11-15T05:38:56;7.60;87.00
73137;DHT22;62977;45.636;11.750;2022-11-15T05:41:34;7.50;86.80
73137;DHT22;62977;45.636;11.750;2022-11-15T05:44:02;7.60;87.00
73137;DHT22;62977;45.636;11.750;2022-11-15T05:46:30;7.50;86.80
73137;DHT22;62977;45.636;11.750;2022-11-15T05:48:56;7.50;86.90
73137;DHT22;62977;45.636;11.750;2022-11-15T05:51:22;7.50;86.70
73137;DHT22;62977;45.636;11.750;2022-11-15T05:53:49;7.30;86.40
73137;DHT22;62977;45.636;11.750;2022-11-15T05:56:16;7.40;86.10
73137;DHT22;62977;45.636;11.750;2022-11-15T05:58:42;7.00;86.20
73137;DHT22;62977;45.636;11.750;2022-11-15T06:01:08;7.00;86.90
73137;DHT22;62977;45.636;11.750;2022-11-15T06:03:34;6.90;87.20
73137;DHT22;62977;45.636;11.750;2022-11-15T06:06:01;6.80;87.20
73137;DHT22;62977;45.636;11.750;2022-11-15T06:08:27;6.90;87.60
73137;DHT22;62977;45.636;11.750;2022-11-15T06:10:52;7.00;87.60
73137;DHT22;62977;45.636;11.750;2022-11-15T06:13:18;7.00;87.40
73137;DHT22;62977;45.636;11.750;2022-11-15T06:15:43;7.10;87.70
73137;DHT22;62977;45.636;11.750;2022-11-15T06:18:09;7.20;87.60
73137;DHT22;62977;45.636;11.750;2022-11-15T06:20:35;7.30;87.30
73137;DHT22;62977;45.636;11.750;2022-11-15T06:23:02;7.30;87.00
73137;DHT22;62977;45.636;11.750;2022-11-15T06:25:29;7.20;86.90
73137;DHT22;62977;45.636;11.750;2022-11-15T06:27:57;7.10;86.70
73137;DHT22;62977;45.636;11.750;2022-11-15T06:30:24;7.00;87.20
73137;DHT22;62977;45.636;11.750;2022-11-15T06:32:50;6.60;87.30
73137;DHT22;62977;45.636;11.750;2022-11-15T06:35:16;6.60;87.30
73137;DHT22;62977;45.636;11.750;2022-11-15T06:37:42;6.40;87.80
73137;DHT22;62977;45.636;11.750;2022-11-15T06:40:08;6.50;87.60
73137;DHT22;62977;45.636;11.750;2022-11-15T06:42:35;6.50;87.50
73137;DHT22;62977;45.636;11.750;2022-11-15T06:45:00;6.50;87.30
73137;DHT22;62977;45.636;11.750;2022-11-15T06:47:26;6.80;87.30
73137;DHT22;62977;45.636;11.750;2022-11-15T06:49:52;6.50;87.20
73137;DHT22;62977;45.636;11.750;2022-11-15T06:52:18;6.70;86.90
73137;DHT22;62977;45.636;11.750;2022-11-15T06:54:45;6.60;87.50
73137;DHT22;62977;45.636;11.750;2022-11-15T06:57:10;6.50;87.20
73137;DHT22;62977;45.636;11.750;2022-11-15T06:59:36;6.40;87.30
73137;DHT22;62977;45.636;11.750;2022-11-15T07:02:02;6.60;87.50
73137;DHT22;62977;45.636;11.750;2022-11-15T07:04:28;6.60;87.60
73137;DHT22;62977;45.636;11.750;2022-11-15T07:06:54;6.60;88.00
73137;DHT22;62977;45.636;11.750;2022-11-15T07:09:20;6.60;87.70
73137;DHT22;62977;45.636;11.750;2022-11-15T07:11:45;6.60;87.90
73137;DHT22;62977;45.636;11.750;2022-11-15T07:14:11;6.50;87.60
73137;DHT22;62977;45.636;11.750;2022-11-15T07:16:37;6.90;87.70
73137;DHT22;62977;45.636;11.750;2022-11-15T07:19:03;6.90;87.90
73137;DHT22;62977;45.636;11.750;2022-11-15T07:21:29;7.00;87.30
73137;DHT22;62977;45.636;11.750;2022-11-15T07:23:54;7.10;87.40
73137;DHT22;62977;45.636;11.750;2022-11-15T07:26:20;7.10;87.00
73137;DHT22;62977;45.636;11.750;2022-11-15T07:28:46;7.10;87.00
73137;DHT22;62977;45.636;11.750;2022-11-15T07:31:12;7.40;87.50
73137;DHT22;62977;45.636;11.750;2022-11-15T07:33:37;7.20;87.00
73137;DHT22;62977;45.636;11.750;2022-11-15T07:36:05;7.10;86.80
73137;DHT22;62977;45.636;11.750;2022-11-15T07:38:32;7.20;87.00
73137;DHT22;62977;45.636;11.750;2022-11-15T07:41:03;6.90;86.60
73137;DHT22;62977;45.636;11.750;2022-11-15T07:43:29;7.30;87.00
73137;DHT22;62977;45.636;11.750;2022-11-15T07:45:56;7.30;87.10
73137;DHT22;62977;45.636;11.750;2022-11-15T07:48:22;7.30;87.10
73137;DHT22;62977;45.636;11.750;2022-11-15T07:50:48;7.60;86.80
73137;DHT22;62977;45.636;11.750;2022-11-15T07:53:13;7.60;86.90
73137;DHT22;62977;45.636;11.750;2022-11-15T07:55:40;7.90;86.40
73137;DHT22;62977;45.636;11.750;2022-11-15T07:58:08;8.20;86.10
73137;DHT22;62977;45.636;11.750;2022-11-15T08:00:36;7.90;85.50
73137;DHT22;62977;45.636;11.750;2022-11-15T08:03:10;7.90;85.60
73137;DHT22;62977;45.636;11.750;2022-11-15T08:05:38;8.00;85.80
73137;DHT22;62977;45.636;11.750;2022-11-15T08:08:04;8.20;85.90
73137;DHT22;62977;45.636;11.750;2022-11-15T08:10:30;8.10;85.40
73137;DHT22;62977;45.636;11.750;2022-11-15T08:13:03;8.00;86.20
73137;DHT22;62977;45.636;11.750;2022-11-15T08:15:30;8.00;86.30
73137;DHT22;62977;45.636;11.750;2022-11-15T08:18:01;7.70;86.80
73137;DHT22;62977;45.636;11.750;2022-11-15T08:20:28;7.50;87.50
73137;DHT22;62977;45.636;11.750;2022-11-15T08:22:58;7.90;87.70
73137;DHT22;62977;45.636;11.750;2022-11-15T08:25:25;7.90;87.10
73137;DHT22;62977;45.636;11.750;2022-11-15T08:28:02;7.90;86.90
73137;DHT22;62977;45.636;11.750;2022-11-15T08:30:28;7.80;86.90
73137;DHT22;62977;45.636;11.750;2022-11-15T08:32:57;7.90;87.20
73137;DHT22;62977;45.636;11.750;2022-11-15T08:35:23;8.00;87.00
73137;DHT22;62977;45.636;11.750;2022-11-15T08:37:49;8.30;86.50
73137;DHT22;62977;45.636;11.750;2022-11-15T08:40:15;8.70;86.40
73137;DHT22;62977;45.636;11.750;2022-11-15T08:42:40;8.90;85.40
73137;DHT22;62977;45.636;11.750;2022-11-15T08:45:07;8.80;85.20
73137;DHT22;62977;45.636;11.750;2022-11-15T08:47:33;8.70;86.00
73137;DHT22;62977;45.636;11.750;2022-11-15T08:49:59;9.10;85.50
73137;DHT22;62977;45.636;11.750;2022-11-15T08:52:25;9.20;84.80
73137;DHT22;62977;45.636;11.750;2022-11-15T08:54:51;9.10;85.00
73137;DHT22;62977;45.636;11.750;2022-11-15T08:57:16;9.00;85.10
73137;DHT22;62977;45.636;11.750;2022-11-15T08:59:42;9.40;85.10
73137;DHT22;62977;45.636;11.750;2022-11-15T09:02:12;9.70;84.20
73137;DHT22;62977;45.636;11.750;2022-11-15T09:04:42;9.70;84.50
73137;DHT22;62977;45.636;11.750;2022-11-15T09:07:11;10.00;84.20
73137;DHT22;62977;45.636;11.750;2022-11-15T09:09:38;10.40;83.70
73137;DHT22;62977;45.636;11.750;2022-11-15T09:12:05;10.50;82.70
73137;DHT22;62977;45.636;11.750;2022-11-15T09:14:31;10.50;83.10
73137;DHT22;62977;45.636;11.750;2022-11-15T09:16:57;10.50;83.30
73137;DHT22;62977;45.636;11.750;2022-11-15T09:19:23;10.50;83.50
73137;DHT22;62977;45.636;11.750;2022-11-15T09:21:49;10.70;83.30
73137;DHT22;62977;45.636;11.750;2022-11-15T09:24:15;10.70;83.60
73137;DHT22;62977;45.636;11.750;2022-11-15T09:26:41;10.90;83.20
73137;DHT22;62977;45.636;11.750;2022-11-15T09:29:06;10.70;83.30
73137;DHT22;62977;45.636;11.750;2022-11-15T09:31:32;10.90;83.50
73137;DHT22;62977;45.636;11.750;2022-11-15T09:33:58;10.80;83.80
73137;DHT22;62977;45.636;11.750;2022-11-15T09:36:23;10.90;83.90
73137;DHT22;62977;45.636;11.750;2022-11-15T09:38:49;11.10;84.00
73137;DHT22;62977;45.636;11.750;2022-11-15T09:46:34;10.80;84.20
73137;DHT22;62977;45.636;11.750;2022-11-15T09:49:03;10.70;84.60
73137;DHT22;62977;45.636;11.750;2022-11-15T09:51:39;10.80;84.40
73137;DHT22;62977;45.636;11.750;2022-11-15T09:54:34;10.80;84.60
73137;DHT22;62977;45.636;11.750;2022-11-15T09:57:12;10.70;84.90
73137;DHT22;62977;45.636;11.750;2022-11-15T09:59:47;11.10;84.60
73137;DHT22;62977;45.636;11.750;2022-11-15T10:04:39;11.40;84.30
73137;DHT22;62977;45.636;11.750;2022-11-15T10:09:50;11.70;83.50
73137;DHT22;62977;45.636;11.750;2022-11-15T10:12:17;11.90;83.50
73137;DHT22;62977;45.636;11.750;2022-11-15T10:14:43;11.80;83.00
73137;DHT22;62977;45.636;11.750;2022-11-15T10:20:22;11.80;82.90
73137;DHT22;62977;45.636;11.750;2022-11-15T10:25:31;12.00;82.90
73137;DHT22;62977;45.636;11.750;2022-11-15T10:27:59;12.10;83.10
73137;DHT22;62977;45.636;11.750;2022-11-15T10:30:36;12.00;82.60
73137;DHT22;62977;45.636;11.750;2022-11-15T10:33:22;12.20;83.00
73137;DHT22;62977;45.636;11.750;2022-11-15T10:39:00;12.60;82.40
73137;DHT22;62977;45.636;11.750;2022-11-15T10:44:22;13.00;79.70
73137;DHT22;62977;45.636;11.750;2022-11-15T10:47:23;12.70;82.20
73137;DHT22;62977;45.636;11.750;2022-11-15T10:49:57;12.90;81.10
73137;DHT22;62977;45.636;11.750;2022-11-15T10:52:23;12.60;82.70
73137;DHT22;62977;45.636;11.750;2022-11-15T10:55:23;12.50;83.40
73137;DHT22;62977;45.636;11.750;2022-11-15T10:57:53;12.50;83.40
73137;DHT22;62977;45.636;11.750;2022-11-15T11:03:58;12.80;82.30
73137;DHT22;62977;45.636;11.750;2022-11-15T11:06:03;12.50;83.50
73137;DHT22;62977;45.636;11.750;2022-11-15T11:08:29;12.40;84.10
73137;DHT22;62977;45.636;11.750;2022-11-15T11:10:59;12.60;83.90
73137;DHT22;62977;45.636;11.750;2022-11-15T11:13:31;12.70;82.50
73137;DHT22;62977;45.636;11.750;2022-11-15T11:21:49;13.00;81.90
73137;DHT22;62977;45.636;11.750;2022-11-15T11:24:25;12.80;82.00
73137;DHT22;62977;45.636;11.750;2022-11-15T11:27:23;12.50;83.50
73137;DHT22;62977;45.636;11.750;2022-11-15T11:30:03;12.40;83.60
73137;DHT22;62977;45.636;11.750;2022-11-15T11:32:53;12.60;83.60
73137;DHT22;62977;45.636;11.750;2022-11-15T11:35:30;12.50;84.20
73137;DHT22;62977;45.636;11.750;2022-11-15T11:40:57;12.50;84.50
73137;DHT22;62977;45.636;11.750;2022-11-15T11:43:34;12.40;84.20
73137;DHT22;62977;45.636;11.750;2022-11-15T11:46:17;12.70;84.30
73137;DHT22;62977;45.636;11.750;2022-11-15T11:49:25;12.60;84.30
73137;DHT22;62977;45.636;11.750;2022-11-15T11:54:25;13.00;82.50
73137;DHT22;62977;45.636;11.750;2022-11-15T11:56:54;12.80;82.50
73137;DHT22;62977;45.636;11.750;2022-11-15T11:59:42;13.00;82.30
73137;DHT22;62977;45.636;11.750;2022-11-15T12:02:19;13.00;81.60
73137;DHT22;62977;45.636;11.750;2022-11-15T12:04:50;13.20;81.90
73137;DHT22;62977;45.636;11.750;2022-11-15T12:07:26;13.10;81.10
73137;DHT22;62977;45.636;11.750;2022-11-15T12:09:55;13.30;81.30
73137;DHT22;62977;45.636;11.750;2022-11-15T12:12:44;13.30;80.80
73137;DHT22;62977;45.636;11.750;2022-11-15T12:15:24;13.30;80.90
73137;DHT22;62977;45.636;11.750;2022-11-15T12:17:52;13.30;81.00
73137;DHT22;62977;45.636;11.750;2022-11-15T12:20:18;13.40;80.90
73137;DHT22;62977;45.636;11.750;2022-11-15T12:22:47;13.30;80.80
73137;DHT22;62977;45.636;11.750;2022-11-15T12:30:19;13.20;81.00
73137;DHT22;62977;45.636;11.750;2022-11-15T12:32:57;13.20;81.40
73137;DHT22;62977;45.636;11.750;2022-11-15T12:35:37;13.20;81.30
73137;DHT22;62977;45.636;11.750;2022-11-15T12:38:04;13.30;81.30
73137;DHT22;62977;45.636;11.750;2022-11-15T12:40:34;13.30;80.80
73137;DHT22;62977;45.636;11.750;2022-11-15T12:45:43;13.20;80.50
73137;DHT22;62977;45.636;11.750;2022-11-15T12:58:57;13.30;80.70
73137;DHT22;62977;45.636;11.750;2022-11-15T13:04:24;13.40;81.50
73137;DHT22;62977;45.636;11.750;2022-11-15T13:12:01;13.30;81.30
73137;DHT22;62977;45.636;11.750;2022-11-15T13:19:46;13.50;80.60
73137;DHT22;62977;45.636;11.750;2022-11-15T13:22:13;13.50;81.60
73137;DHT22;62977;45.636;11.750;2022-11-15T13:24:57;13.60;80.70
73137;DHT22;62977;45.636;11.750;2022-11-15T13:27:23;13.50;80.60
73137;DHT22;62977;45.636;11.750;2022-11-15T13:29:50;13.50;80.30
73137;DHT22;62977;45.636;11.750;2022-11-15T13:32:16;13.40;79.80
73137;DHT22;62977;45.636;11.750;2022-11-15T13:34:47;13.40;79.80
73137;DHT22;62977;45.636;11.750;2022-11-15T13:37:33;13.30;79.40
73137;DHT22;62977;45.636;11.750;2022-11-15T13:40:28;13.30;78.90
73137;DHT22;62977;45.636;11.750;2022-11-15T13:42:56;13.20;80.20
73137;DHT22;62977;45.636;11.750;2022-11-15T13:45:23;13.30;79.00
73137;DHT22;62977;45.636;11.750;2022-11-15T13:47:56;13.10;80.50
73137;DHT22;62977;45.636;11.750;2022-11-15T13:50:29;13.30;80.50
73137;DHT22;62977;45.636;11.750;2022-11-15T13:52:59;13.30;80.10
73137;DHT22;62977;45.636;11.750;2022-11-15T13:55:27;13.20;79.70
73137;DHT22;62977;45.636;11.750;2022-11-15T13:57:57;13.30;80.30
73137;DHT22;62977;45.636;11.750;2022-11-15T14:00:39;13.30;79.90
73137;DHT22;62977;45.636;11.750;2022-11-15T14:03:25;13.30;80.10
73137;DHT22;62977;45.636;11.750;2022-11-15T14:06:15;13.30;80.30
73137;DHT22;62977;45.636;11.750;2022-11-15T14:11:36;13.40;80.80
73137;DHT22;62977;45.636;11.750;2022-11-15T14:17:18;13.20;81.70
73137;DHT22;62977;45.636;11.750;2022-11-15T14:22:11;13.20;81.60
73137;DHT22;62977;45.636;11.750;2022-11-15T14:24:37;13.20;81.70
73137;DHT22;62977;45.636;11.750;2022-11-15T14:27:25;13.30;81.30
73137;DHT22;62977;45.636;11.750;2022-11-15T14:29:51;13.20;81.60
73137;DHT22;62977;45.636;11.750;2022-11-15T14:32:23;13.20;81.70
73137;DHT22;62977;45.636;11.750;2022-11-15T14:35:03;13.20;81.90
73137;DHT22;62977;45.636;11.750;2022-11-15T14:37:33;13.20;81.60
73137;DHT22;62977;45.636;11.750;2022-11-15T14:40:04;13.10;82.00
73137;DHT22;62977;45.636;11.750;2022-11-15T14:42:30;13.20;82.30
73137;DHT22;62977;45.636;11.750;2022-11-15T14:44:56;13.10;82.60
73137;DHT22;62977;45.636;11.750;2022-11-15T14:47:22;13.10;82.50
73137;DHT22;62977;45.636;11.750;2022-11-15T14:49:48;13.10;82.40
73137;DHT22;62977;45.636;11.750;2022-11-15T14:52:31;13.10;82.60
73137;DHT22;62977;45.636;11.750;2022-11-15T14:55:02;13.10;81.70
73137;DHT22;62977;45.636;11.750;2022-11-15T14:57:29;13.00;82.80
73137;DHT22;62977;45.636;11.750;2022-11-15T14:59:55;12.90;83.00
73137;DHT22;62977;45.636;11.750;2022-11-15T15:02:23;13.00;82.80
73137;DHT22;62977;45.636;11.750;2022-11-15T15:04:49;12.80;83.20
73137;DHT22;62977;45.636;11.750;2022-11-15T15:07:16;12.80;83.40
73137;DHT22;62977;45.636;11.750;2022-11-15T15:09:42;12.70;83.30
73137;DHT22;62977;45.636;11.750;2022-11-15T15:12:26;12.80;83.50
73137;DHT22;62977;45.636;11.750;2022-11-15T15:14:51;12.80;83.00
73137;DHT22;62977;45.636;11.750;2022-11-15T15:17:17;12.80;82.80
73137;DHT22;62977;45.636;11.750;2022-11-15T15:19:43;12.90;83.40
73137;DHT22;62977;45.636;11.750;2022-11-15T15:22:17;12.80;83.60
73137;DHT22;62977;45.636;11.750;2022-11-15T15:24:44;12.80;83.70
73137;DHT22;62977;45.636;11.750;2022-11-15T15:27:10;12.90;83.60
73137;DHT22;62977;45.636;11.750;2022-11-15T15:29:36;12.90;83.70
73137;DHT22;62977;45.636;11.750;2022-11-15T15:32:02;12.90;83.70
73137;DHT22;62977;45.636;11.750;2022-11-15T15:34:28;12.90;83.70
73137;DHT22;62977;45.636;11.750;2022-11-15T15:37:26;12.80;83.70
73137;DHT22;62977;45.636;11.750;2022-11-15T15:39:56;12.80;83.80
73137;DHT22;62977;45.636;11.750;2022-11-15T15:42:22;12.80;83.80
73137;DHT22;62977;45.636;11.750;2022-11-15T15:44:49;12.60;85.70
73137;DHT22;62977;45.636;11.750;2022-11-15T15:47:22;12.70;83.80
73137;DHT22;62977;45.636;11.750;2022-11-15T15:49:49;12.60;85.50
73137;DHT22;62977;45.636;11.750;2022-11-15T15:52:15;12.70;84.60
73137;DHT22;62977;45.636;11.750;2022-11-15T15:54:41;12.60;85.40
73137;DHT22;62977;45.636;11.750;2022-11-15T15:57:08;12.60;85.10
73137;DHT22;62977;45.636;11.750;2022-11-15T15:59:36;12.50;85.30
73137;DHT22;62977;45.636;11.750;2022-11-15T16:02:01;12.50;85.90
73137;DHT22;62977;45.636;11.750;2022-11-15T16:04:27;12.40;86.10
73137;DHT22;62977;45.636;11.750;2022-11-15T16:07:01;12.40;86.40
73137;DHT22;62977;45.636;11.750;2022-11-15T16:09:27;12.40;86.40
73137;DHT22;62977;45.636;11.750;2022-11-15T16:12:11;12.50;86.70
73137;DHT22;62977;45.636;11.750;2022-11-15T16:14:37;12.60;86.40
73137;DHT22;62977;45.636;11.750;2022-11-15T16:17:03;12.60;86.70
73137;DHT22;62977;45.636;11.750;2022-11-15T16:19:29;12.70;84.60
73137;DHT22;62977;45.636;11.750;2022-11-15T16:21:54;12.70;86.40
73137;DHT22;62977;45.636;11.750;2022-11-15T16:24:21;12.70;85.10
73137;DHT22;62977;45.636;11.750;2022-11-15T16:26:47;12.60;86.50
73137;DHT22;62977;45.636;11.750;2022-11-15T16:29:13;12.60;86.50
73137;DHT22;62977;45.636;11.750;2022-11-15T16:31:39;12.50;85.90
73137;DHT22;62977;45.636;11.750;2022-11-15T16:34:05;12.50;86.70
73137;DHT22;62977;45.636;11.750;2022-11-15T16:36:33;12.60;86.80
73137;DHT22;62977;45.636;11.750;2022-11-15T16:39:00;12.60;86.30
73137;DHT22;62977;45.636;11.750;2022-11-15T16:41:29;12.70;86.60
73137;DHT22;62977;45.636;11.750;2022-11-15T16:43:55;12.60;86.30
73137;DHT22;62977;45.636;11.750;2022-11-15T16:46:26;12.50;86.70
73137;DHT22;62977;45.636;11.750;2022-11-15T16:48:52;12.40;86.10
73137;DHT22;62977;45.636;11.750;2022-11-15T16:51:21;12.40;86.50
73137;DHT22;62977;45.636;11.750;2022-11-15T16:53:48;12.30;87.00
73137;DHT22;62977;45.636;11.750;2022-11-15T16:56:18;12.40;87.40
73137;DHT22;62977;45.636;11.750;2022-11-15T16:58:45;12.30;87.00
73137;DHT22;62977;45.636;11.750;2022-11-15T17:01:17;12.40;87.20
73137;DHT22;62977;45.636;11.750;2022-11-15T17:03:43;12.40;87.20
73137;DHT22;62977;45.636;11.750;2022-11-15T17:06:10;12.50;87.30
73137;DHT22;62977;45.636;11.750;2022-11-15T17:08:37;12.60;87.00
73137;DHT22;62977;45.636;11.750;2022-11-15T17:11:10;12.50;87.10
73137;DHT22;62977;45.636;11.750;2022-11-15T17:13:38;12.60;87.10
73137;DHT22;62977;45.636;11.750;2022-11-15T17:16:09;12.50;86.80
73137;DHT22;62977;45.636;11.750;2022-11-15T17:18:36;12.40;86.90
73137;DHT22;62977;45.636;11.750;2022-11-15T17:21:09;12.30;87.70
73137;DHT22;62977;45.636;11.750;2022-11-15T17:23:36;12.20;87.40
73137;DHT22;62977;45.636;11.750;2022-11-15T17:26:03;12.40;87.60